sensor_id;sensor_type;location;lat;lon;timestamp;P1;durP1;ratioP1;P2;durP2;ratioP2
43114;SDS011;28727;50.068;14.452;2024-01-15T00:02:11;23.33;;;10.55;;
43114;SDS011;28727;50.068;14.452;2024-01-15T00:04:43;22.48;;;10.10;;
43114;SDS011;28727;50.068;14.452;2024-01-15T00:07:17;22.83;;;11.35;;
43114;SDS011;28727;50.068;14.452;2024-01-15T00:09:54;26.13;;;12.68;;
43114;SDS011;28727;50.068;14.452;2024-01-15T00:12:27;26.05;;;12.05;;
43114;SDS011;28727;50.068;14.452;2024-01-15T00:14:59;22.20;;;10.57;;
43114;SDS011;28727;50.068;14.452;2024-01-15T00:17:33;21.75;;;10.15;;
43114;SDS011;28727;50.068;14.452;2024-01-15T00:20:05;22.10;;;10.68;;
43114;SDS011;28727;50.068;14.452;2024-01-15T00:22:41;24.45;;;11.82;;
43114;SDS011;28727;50.068;14.452;2024-01-15T00:25:13;23.88;;;11.30;;
43114;SDS011;28727;50.068;14.452;2024-01-15T00:27:45;26.98;;;11.27;;
43114;SDS011;28727;50.068;14.452;2024-01-15T00:30:17;24.13;;;10.80;;
43114;SDS011;28727;50.068;14.452;2024-01-15T00:32:49;25.65;;;12.18;;
43114;SDS011;28727;50.068;14.452;2024-01-15T00:35:23;23.45;;;11.70;;
43114;SDS011;28727;50.068;14.452;2024-01-15T00:37:55;26.92;;;11.95;;
43114;SDS011;28727;50.068;14.452;2024-01-15T00:40:27;23.88;;;11.15;;
43114;SDS011;28727;50.068;14.452;2024-01-15T00:42:59;26.13;;;12.55;;
43114;SDS011;28727;50.068;14.452;2024-01-15T00:45:34;24.80;;;11.50;;
43114;SDS011;28727;50.068;14.452;2024-01-15T00:48:09;23.00;;;11.55;;
43114;SDS011;28727;50.068;14.452;2024-01-15T00:50:41;25.27;;;10.80;;
43114;SDS011;28727;50.068;14.452;2024-01-15T00:53:15;28.70;;;13.68;;
43114;SDS011;28727;50.068;14.452;2024-01-15T00:55:48;25.17;;;11.18;;
43114;SDS011;28727;50.068;14.452;2024-01-15T00:58:20;26.10;;;12.00;;
43114;SDS011;28727;50.068;14.452;2024-01-15T01:00:52;24.42;;;11.02;;
43114;SDS011;28727;50.068;14.452;2024-01-15T01:03:24;26.70;;;11.88;;
43114;SDS011;28727;50.068;14.452;2024-01-15T01:05:56;25.63;;;11.65;;
43114;SDS011;28727;50.068;14.452;2024-01-15T01:08:28;22.38;;;10.98;;
43114;SDS011;28727;50.068;14.452;2024-01-15T01:11:00;28.15;;;12.73;;
43114;SDS011;28727;50.068;14.452;2024-01-15T01:13:32;24.25;;;11.77;;
43114;SDS011;28727;50.068;14.452;2024-01-15T01:16:06;25.33;;;12.52;;
43114;SDS011;28727;50.068;14.452;2024-01-15T01:18:37;25.25;;;11.68;;
43114;SDS011;28727;50.068;14.452;2024-01-15T01:21:13;25.60;;;12.23;;
43114;SDS011;28727;50.068;14.452;2024-01-15T01:23:45;21.90;;;11.13;;
43114;SDS011;28727;50.068;14.452;2024-01-15T01:26:21;27.17;;;12.40;;
43114;SDS011;28727;50.068;14.452;2024-01-15T01:31:25;23.92;;;11.95;;
43114;SDS011;28727;50.068;14.452;2024-01-15T01:33:57;26.33;;;11.85;;
43114;SDS011;28727;50.068;14.452;2024-01-15T01:36:31;27.95;;;12.60;;
43114;SDS011;28727;50.068;14.452;2024-01-15T01:39:03;25.23;;;12.50;;
43114;SDS011;28727;50.068;14.452;2024-01-15T01:41:37;25.80;;;12.63;;
43114;SDS011;28727;50.068;14.452;2024-01-15T01:44:10;24.95;;;12.25;;
43114;SDS011;28727;50.068;14.452;2024-01-15T01:46:43;27.27;;;12.63;;
43114;SDS011;28727;50.068;14.452;2024-01-15T01:49:17;22.77;;;11.73;;
43114;SDS011;28727;50.068;14.452;2024-01-15T01:51:53;25.90;;;11.95;;
43114;SDS011;28727;50.068;14.452;2024-01-15T01:54:29;23.63;;;10.52;;
43114;SDS011;28727;50.068;14.452;2024-01-15T01:57:04;25.65;;;12.60;;
43114;SDS011;28727;50.068;14.452;2024-01-15T01:59:39;24.85;;;12.32;;
43114;SDS011;28727;50.068;14.452;2024-01-15T02:02:17;24.80;;;12.65;;
43114;SDS011;28727;50.068;14.452;2024-01-15T02:04:50;22.83;;;11.35;;
43114;SDS011;28727;50.068;14.452;2024-01-15T02:07:22;27.05;;;12.63;;
43114;SDS011;28727;50.068;14.452;2024-01-15T02:09:56;28.53;;;13.40;;
43114;SDS011;28727;50.068;14.452;2024-01-15T02:12:28;26.00;;;12.38;;
43114;SDS011;28727;50.068;14.452;2024-01-15T02:15:00;27.10;;;13.85;;
43114;SDS011;28727;50.068;14.452;2024-01-15T02:17:33;27.20;;;13.05;;
43114;SDS011;28727;50.068;14.452;2024-01-15T02:20:05;24.60;;;12.45;;
43114;SDS011;28727;50.068;14.452;2024-01-15T02:22:38;28.85;;;13.30;;
43114;SDS011;28727;50.068;14.452;2024-01-15T02:25:10;25.88;;;13.13;;
43114;SDS011;28727;50.068;14.452;2024-01-15T02:27:45;29.27;;;13.88;;
43114;SDS011;28727;50.068;14.452;2024-01-15T02:30:25;31.10;;;15.05;;
43114;SDS011;28727;50.068;14.452;2024-01-15T02:33:00;28.23;;;13.63;;
43114;SDS011;28727;50.068;14.452;2024-01-15T02:35:33;28.67;;;13.20;;
43114;SDS011;28727;50.068;14.452;2024-01-15T02:38:07;31.10;;;13.73;;
43114;SDS011;28727;50.068;14.452;2024-01-15T02:40:40;30.42;;;14.10;;
43114;SDS011;28727;50.068;14.452;2024-01-15T02:43:12;27.98;;;12.93;;
43114;SDS011;28727;50.068;14.452;2024-01-15T02:45:45;28.67;;;14.30;;
43114;SDS011;28727;50.068;14.452;2024-01-15T02:48:20;29.85;;;13.80;;
43114;SDS011;28727;50.068;14.452;2024-01-15T02:50:54;31.42;;;14.70;;
43114;SDS011;28727;50.068;14.452;2024-01-15T02:53:31;28.02;;;13.52;;
43114;SDS011;28727;50.068;14.452;2024-01-15T02:56:03;28.65;;;14.85;;
43114;SDS011;28727;50.068;14.452;2024-01-15T02:58:38;29.25;;;13.60;;
43114;SDS011;28727;50.068;14.452;2024-01-15T03:01:10;31.80;;;14.90;;
43114;SDS011;28727;50.068;14.452;2024-01-15T03:03:42;31.30;;;13.38;;
43114;SDS011;28727;50.068;14.452;2024-01-15T03:06:13;30.52;;;15.15;;
43114;SDS011;28727;50.068;14.452;2024-01-15T03:08:45;30.48;;;14.07;;
43114;SDS011;28727;50.068;14.452;2024-01-15T03:11:17;30.98;;;14.52;;
43114;SDS011;28727;50.068;14.452;2024-01-15T03:13:49;29.50;;;14.82;;
43114;SDS011;28727;50.068;14.452;2024-01-15T03:16:21;31.15;;;14.80;;
43114;SDS011;28727;50.068;14.452;2024-01-15T03:18:53;28.08;;;13.38;;
43114;SDS011;28727;50.068;14.452;2024-01-15T03:21:30;30.70;;;15.23;;
43114;SDS011;28727;50.068;14.452;2024-01-15T03:24:01;28.52;;;12.43;;
43114;SDS011;28727;50.068;14.452;2024-01-15T03:26:35;29.63;;;14.27;;
43114;SDS011;28727;50.068;14.452;2024-01-15T03:29:07;33.33;;;14.32;;
43114;SDS011;28727;50.068;14.452;2024-01-15T03:31:39;28.77;;;13.80;;
43114;SDS011;28727;50.068;14.452;2024-01-15T03:34:12;29.60;;;12.75;;
43114;SDS011;28727;50.068;14.452;2024-01-15T03:36:44;29.67;;;13.38;;
43114;SDS011;28727;50.068;14.452;2024-01-15T03:39:42;24.92;;;10.48;;
43114;SDS011;28727;50.068;14.452;2024-01-15T03:42:14;33.72;;;14.15;;
43114;SDS011;28727;50.068;14.452;2024-01-15T03:44:46;19.40;;;8.38;;
43114;SDS011;28727;50.068;14.452;2024-01-15T03:47:19;30.52;;;13.02;;
43114;SDS011;28727;50.068;14.452;2024-01-15T03:49:53;25.70;;;12.98;;
43114;SDS011;28727;50.068;14.452;2024-01-15T03:52:29;24.35;;;12.30;;
43114;SDS011;28727;50.068;14.452;2024-01-15T03:55:01;24.10;;;11.38;;
43114;SDS011;28727;50.068;14.452;2024-01-15T03:57:33;28.25;;;12.93;;
43114;SDS011;28727;50.068;14.452;2024-01-15T04:00:08;26.63;;;12.20;;
43114;SDS011;28727;50.068;14.452;2024-01-15T04:02:42;29.60;;;13.20;;
43114;SDS011;28727;50.068;14.452;2024-01-15T04:05:15;25.85;;;12.07;;
43114;SDS011;28727;50.068;14.452;2024-01-15T04:07:48;24.80;;;12.60;;
43114;SDS011;28727;50.068;14.452;2024-01-15T04:10:20;25.63;;;12.02;;
43114;SDS011;28727;50.068;14.452;2024-01-15T04:12:52;27.95;;;12.25;;
43114;SDS011;28727;50.068;14.452;2024-01-15T04:15:24;22.55;;;10.98;;
43114;SDS011;28727;50.068;14.452;2024-01-15T04:17:56;27.90;;;12.30;;
43114;SDS011;28727;50.068;14.452;2024-01-15T04:20:31;27.10;;;12.90;;
43114;SDS011;28727;50.068;14.452;2024-01-15T04:25:35;25.48;;;11.88;;
43114;SDS011;28727;50.068;14.452;2024-01-15T04:28:07;26.83;;;11.38;;
43114;SDS011;28727;50.068;14.452;2024-01-15T04:30:39;24.45;;;11.70;;
43114;SDS011;28727;50.068;14.452;2024-01-15T04:33:11;28.23;;;12.73;;
43114;SDS011;28727;50.068;14.452;2024-01-15T04:38:18;25.95;;;11.10;;
43114;SDS011;28727;50.068;14.452;2024-01-15T04:40:50;25.55;;;11.60;;
43114;SDS011;28727;50.068;14.452;2024-01-15T04:43:26;21.65;;;10.45;;
43114;SDS011;28727;50.068;14.452;2024-01-15T04:46:00;23.50;;;10.90;;
43114;SDS011;28727;50.068;14.452;2024-01-15T04:48:34;26.13;;;10.70;;
43114;SDS011;28727;50.068;14.452;2024-01-15T04:51:09;22.20;;;10.27;;
43114;SDS011;28727;50.068;14.452;2024-01-15T04:53:41;24.08;;;11.20;;
43114;SDS011;28727;50.068;14.452;2024-01-15T04:58:48;20.33;;;9.98;;
43114;SDS011;28727;50.068;14.452;2024-01-15T05:01:21;23.75;;;10.63;;
43114;SDS011;28727;50.068;14.452;2024-01-15T05:03:53;20.52;;;9.48;;
43114;SDS011;28727;50.068;14.452;2024-01-15T05:06:28;20.35;;;10.00;;
43114;SDS011;28727;50.068;14.452;2024-01-15T05:09:01;24.50;;;11.60;;
43114;SDS011;28727;50.068;14.452;2024-01-15T05:11:33;23.30;;;10.88;;
43114;SDS011;28727;50.068;14.452;2024-01-15T05:14:05;23.90;;;11.32;;
43114;SDS011;28727;50.068;14.452;2024-01-15T05:16:55;23.40;;;9.88;;
43114;SDS011;28727;50.068;14.452;2024-01-15T05:19:27;24.70;;;10.38;;
43114;SDS011;28727;50.068;14.452;2024-01-15T05:22:00;25.45;;;11.48;;
43114;SDS011;28727;50.068;14.452;2024-01-15T05:24:31;24.13;;;10.95;;
43114;SDS011;28727;50.068;14.452;2024-01-15T05:27:03;23.25;;;9.98;;
43114;SDS011;28727;50.068;14.452;2024-01-15T05:32:10;22.70;;;8.60;;
43114;SDS011;28727;50.068;14.452;2024-01-15T05:34:42;19.77;;;8.75;;
43114;SDS011;28727;50.068;14.452;2024-01-15T05:37:14;21.85;;;10.65;;
43114;SDS011;28727;50.068;14.452;2024-01-15T05:39:46;23.63;;;10.45;;
43114;SDS011;28727;50.068;14.452;2024-01-15T05:42:19;17.17;;;9.07;;
43114;SDS011;28727;50.068;14.452;2024-01-15T05:44:51;23.15;;;9.98;;
43114;SDS011;28727;50.068;14.452;2024-01-15T05:47:22;19.33;;;9.13;;
43114;SDS011;28727;50.068;14.452;2024-01-15T05:49:58;17.90;;;8.65;;
43114;SDS011;28727;50.068;14.452;2024-01-15T05:52:34;19.77;;;8.82;;
43114;SDS011;28727;50.068;14.452;2024-01-15T05:55:08;20.50;;;9.27;;
43114;SDS011;28727;50.068;14.452;2024-01-15T05:57:52;19.95;;;8.35;;
43114;SDS011;28727;50.068;14.452;2024-01-15T06:00:24;17.17;;;8.13;;
43114;SDS011;28727;50.068;14.452;2024-01-15T06:02:56;15.68;;;8.20;;
43114;SDS011;28727;50.068;14.452;2024-01-15T06:05:29;17.67;;;8.95;;
43114;SDS011;28727;50.068;14.452;2024-01-15T06:08:01;18.58;;;8.52;;
43114;SDS011;28727;50.068;14.452;2024-01-15T06:10:36;18.50;;;8.70;;
43114;SDS011;28727;50.068;14.452;2024-01-15T06:13:08;18.70;;;7.57;;
43114;SDS011;28727;50.068;14.452;2024-01-15T06:15:43;16.83;;;7.65;;
43114;SDS011;28727;50.068;14.452;2024-01-15T06:18:16;18.92;;;7.13;;
43114;SDS011;28727;50.068;14.452;2024-01-15T06:20:52;20.80;;;8.73;;
43114;SDS011;28727;50.068;14.452;2024-01-15T06:23:24;18.88;;;7.85;;
43114;SDS011;28727;50.068;14.452;2024-01-15T06:25:55;18.98;;;7.93;;
43114;SDS011;28727;50.068;14.452;2024-01-15T06:28:27;18.25;;;8.02;;
43114;SDS011;28727;50.068;14.452;2024-01-15T06:30:59;19.48;;;7.97;;
43114;SDS011;28727;50.068;14.452;2024-01-15T06:33:31;20.67;;;8.85;;
43114;SDS011;28727;50.068;14.452;2024-01-15T06:36:04;20.65;;;8.20;;
43114;SDS011;28727;50.068;14.452;2024-01-15T06:38:37;18.08;;;8.00;;
43114;SDS011;28727;50.068;14.452;2024-01-15T06:41:10;19.50;;;8.70;;
43114;SDS011;28727;50.068;14.452;2024-01-15T06:43:42;19.95;;;8.50;;
43114;SDS011;28727;50.068;14.452;2024-01-15T06:46:23;18.65;;;8.23;;
43114;SDS011;28727;50.068;14.452;2024-01-15T06:48:56;21.83;;;7.95;;
43114;SDS011;28727;50.068;14.452;2024-01-15T06:51:29;16.02;;;8.70;;
43114;SDS011;28727;50.068;14.452;2024-01-15T06:54:02;19.95;;;8.43;;
43114;SDS011;28727;50.068;14.452;2024-01-15T06:56:37;25.63;;;10.18;;
43114;SDS011;28727;50.068;14.452;2024-01-15T06:59:09;20.88;;;10.93;;
43114;SDS011;28727;50.068;14.452;2024-01-15T07:01:40;18.70;;;9.43;;
43114;SDS011;28727;50.068;14.452;2024-01-15T07:04:17;19.17;;;8.63;;
43114;SDS011;28727;50.068;14.452;2024-01-15T07:09:23;19.10;;;8.27;;
43114;SDS011;28727;50.068;14.452;2024-01-15T07:11:55;19.48;;;9.02;;
43114;SDS011;28727;50.068;14.452;2024-01-15T07:14:29;19.30;;;7.78;;
43114;SDS011;28727;50.068;14.452;2024-01-15T07:17:01;18.55;;;7.75;;
43114;SDS011;28727;50.068;14.452;2024-01-15T07:19:33;18.80;;;7.80;;
43114;SDS011;28727;50.068;14.452;2024-01-15T07:22:05;19.10;;;7.65;;
43114;SDS011;28727;50.068;14.452;2024-01-15T07:24:38;20.25;;;8.48;;
43114;SDS011;28727;50.068;14.452;2024-01-15T07:27:10;18.98;;;8.60;;
43114;SDS011;28727;50.068;14.452;2024-01-15T07:29:45;20.90;;;9.05;;
43114;SDS011;28727;50.068;14.452;2024-01-15T07:32:20;20.77;;;8.88;;
43114;SDS011;28727;50.068;14.452;2024-01-15T07:34:53;20.27;;;9.00;;
43114;SDS011;28727;50.068;14.452;2024-01-15T07:37:27;18.05;;;8.35;;
43114;SDS011;28727;50.068;14.452;2024-01-15T07:40:06;17.50;;;8.57;;
43114;SDS011;28727;50.068;14.452;2024-01-15T07:42:40;17.20;;;8.82;;
43114;SDS011;28727;50.068;14.452;2024-01-15T07:45:14;19.00;;;8.20;;
43114;SDS011;28727;50.068;14.452;2024-01-15T07:47:45;15.65;;;7.43;;
43114;SDS011;28727;50.068;14.452;2024-01-15T07:50:17;18.65;;;9.32;;
43114;SDS011;28727;50.068;14.452;2024-01-15T07:52:49;17.25;;;7.82;;
43114;SDS011;28727;50.068;14.452;2024-01-15T07:55:21;16.35;;;7.05;;
43114;SDS011;28727;50.068;14.452;2024-01-15T07:57:54;17.58;;;7.93;;
43114;SDS011;28727;50.068;14.452;2024-01-15T08:00:45;15.93;;;8.00;;
43114;SDS011;28727;50.068;14.452;2024-01-15T08:03:17;17.55;;;7.70;;
43114;SDS011;28727;50.068;14.452;2024-01-15T08:11:00;16.05;;;7.15;;
43114;SDS011;28727;50.068;14.452;2024-01-15T08:13:31;18.30;;;7.65;;
43114;SDS011;28727;50.068;14.452;2024-01-15T08:16:03;15.13;;;7.50;;
43114;SDS011;28727;50.068;14.452;2024-01-15T08:18:43;13.95;;;7.25;;
43114;SDS011;28727;50.068;14.452;2024-01-15T08:21:18;17.02;;;7.90;;
43114;SDS011;28727;50.068;14.452;2024-01-15T08:23:53;15.05;;;7.30;;
43114;SDS011;28727;50.068;14.452;2024-01-15T08:26:29;19.00;;;8.20;;
43114;SDS011;28727;50.068;14.452;2024-01-15T08:29:02;16.42;;;7.93;;
43114;SDS011;28727;50.068;14.452;2024-01-15T08:31:34;16.75;;;8.20;;
43114;SDS011;28727;50.068;14.452;2024-01-15T08:34:06;14.25;;;7.38;;
43114;SDS011;28727;50.068;14.452;2024-01-15T08:36:39;12.40;;;6.22;;
43114;SDS011;28727;50.068;14.452;2024-01-15T08:39:12;22.30;;;7.60;;
43114;SDS011;28727;50.068;14.452;2024-01-15T08:41:45;14.57;;;6.68;;
43114;SDS011;28727;50.068;14.452;2024-01-15T08:44:20;12.82;;;6.30;;
43114;SDS011;28727;50.068;14.452;2024-01-15T08:46:52;16.08;;;7.22;;
43114;SDS011;28727;50.068;14.452;2024-01-15T08:49:24;14.90;;;7.00;;
43114;SDS011;28727;50.068;14.452;2024-01-15T08:51:56;14.27;;;7.32;;
43114;SDS011;28727;50.068;14.452;2024-01-15T08:54:28;14.38;;;7.22;;
43114;SDS011;28727;50.068;14.452;2024-01-15T08:57:03;10.88;;;5.80;;
43114;SDS011;28727;50.068;14.452;2024-01-15T08:59:35;14.68;;;7.22;;
43114;SDS011;28727;50.068;14.452;2024-01-15T09:02:07;12.90;;;6.40;;
43114;SDS011;28727;50.068;14.452;2024-01-15T09:04:40;14.77;;;6.15;;
43114;SDS011;28727;50.068;14.452;2024-01-15T09:07:13;15.38;;;7.20;;
43114;SDS011;28727;50.068;14.452;2024-01-15T09:09:44;16.00;;;7.65;;
43114;SDS011;28727;50.068;14.452;2024-01-15T09:12:16;16.23;;;6.90;;
43114;SDS011;28727;50.068;14.452;2024-01-15T09:14:50;15.45;;;6.72;;
43114;SDS011;28727;50.068;14.452;2024-01-15T09:17:31;17.08;;;6.72;;
43114;SDS011;28727;50.068;14.452;2024-01-15T09:20:04;14.27;;;6.72;;
43114;SDS011;28727;50.068;14.452;2024-01-15T09:22:38;12.23;;;6.43;;
43114;SDS011;28727;50.068;14.452;2024-01-15T09:25:13;12.75;;;6.43;;
43114;SDS011;28727;50.068;14.452;2024-01-15T09:27:45;15.68;;;7.20;;
43114;SDS011;28727;50.068;14.452;2024-01-15T09:30:22;12.85;;;5.90;;
43114;SDS011;28727;50.068;14.452;2024-01-15T09:32:54;14.40;;;6.20;;
43114;SDS011;28727;50.068;14.452;2024-01-15T09:35:30;11.50;;;5.80;;
43114;SDS011;28727;50.068;14.452;2024-01-15T09:38:02;11.32;;;5.63;;
43114;SDS011;28727;50.068;14.452;2024-01-15T09:40:34;11.95;;;5.47;;
43114;SDS011;28727;50.068;14.452;2024-01-15T09:43:10;12.15;;;5.78;;
43114;SDS011;28727;50.068;14.452;2024-01-15T09:45:42;14.27;;;5.97;;
43114;SDS011;28727;50.068;14.452;2024-01-15T09:48:17;15.70;;;6.75;;
43114;SDS011;28727;50.068;14.452;2024-01-15T09:50:50;12.63;;;6.38;;
43114;SDS011;28727;50.068;14.452;2024-01-15T09:53:33;13.10;;;6.32;;
43114;SDS011;28727;50.068;14.452;2024-01-15T09:56:07;11.98;;;5.30;;
43114;SDS011;28727;50.068;14.452;2024-01-15T09:58:41;12.40;;;5.93;;
43114;SDS011;28727;50.068;14.452;2024-01-15T10:01:22;13.48;;;5.97;;
43114;SDS011;28727;50.068;14.452;2024-01-15T10:03:55;11.05;;;5.57;;
43114;SDS011;28727;50.068;14.452;2024-01-15T10:06:27;9.38;;;4.95;;
43114;SDS011;28727;50.068;14.452;2024-01-15T10:09:02;15.15;;;5.95;;
43114;SDS011;28727;50.068;14.452;2024-01-15T10:11:37;12.27;;;6.38;;
43114;SDS011;28727;50.068;14.452;2024-01-15T10:14:09;15.88;;;6.30;;
43114;SDS011;28727;50.068;14.452;2024-01-15T10:16:45;12.70;;;5.75;;
43114;SDS011;28727;50.068;14.452;2024-01-15T10:19:18;14.20;;;5.85;;
43114;SDS011;28727;50.068;14.452;2024-01-15T10:21:50;11.88;;;5.72;;
43114;SDS011;28727;50.068;14.452;2024-01-15T10:24:21;13.25;;;6.38;;
43114;SDS011;28727;50.068;14.452;2024-01-15T10:27:04;11.95;;;5.82;;
43114;SDS011;28727;50.068;14.452;2024-01-15T10:29:42;13.82;;;6.50;;
43114;SDS011;28727;50.068;14.452;2024-01-15T10:32:16;9.07;;;4.63;;
43114;SDS011;28727;50.068;14.452;2024-01-15T10:34:49;12.85;;;6.15;;
43114;SDS011;28727;50.068;14.452;2024-01-15T10:37:28;11.95;;;5.78;;
43114;SDS011;28727;50.068;14.452;2024-01-15T10:40:05;17.77;;;5.97;;
43114;SDS011;28727;50.068;14.452;2024-01-15T10:42:40;12.00;;;5.72;;
43114;SDS011;28727;50.068;14.452;2024-01-15T10:45:13;11.63;;;5.22;;
43114;SDS011;28727;50.068;14.452;2024-01-15T10:47:53;9.93;;;5.07;;
43114;SDS011;28727;50.068;14.452;2024-01-15T10:50:26;13.45;;;5.55;;
43114;SDS011;28727;50.068;14.452;2024-01-15T10:52:58;13.73;;;5.40;;
43114;SDS011;28727;50.068;14.452;2024-01-15T10:55:30;9.27;;;5.00;;
43114;SDS011;28727;50.068;14.452;2024-01-15T10:58:03;10.43;;;4.65;;
43114;SDS011;28727;50.068;14.452;2024-01-15T11:00:39;11.38;;;5.53;;
43114;SDS011;28727;50.068;14.452;2024-01-15T11:03:11;10.57;;;5.53;;
43114;SDS011;28727;50.068;14.452;2024-01-15T11:05:46;10.50;;;5.38;;
43114;SDS011;28727;50.068;14.452;2024-01-15T11:08:19;14.60;;;5.80;;
43114;SDS011;28727;50.068;14.452;2024-01-15T11:10:54;11.65;;;5.53;;
43114;SDS011;28727;50.068;14.452;2024-01-15T11:16:01;18.70;;;6.03;;
43114;SDS011;28727;50.068;14.452;2024-01-15T11:19:23;12.30;;;5.15;;
43114;SDS011;28727;50.068;14.452;2024-01-15T11:21:30;14.40;;;5.05;;
43114;SDS011;28727;50.068;14.452;2024-01-15T11:24:02;11.93;;;4.93;;
43114;SDS011;28727;50.068;14.452;2024-01-15T11:32:02;12.30;;;5.90;;
43114;SDS011;28727;50.068;14.452;2024-01-15T11:37:25;11.15;;;5.32;;
43114;SDS011;28727;50.068;14.452;2024-01-15T11:40:02;11.70;;;4.72;;
43114;SDS011;28727;50.068;14.452;2024-01-15T11:42:36;9.95;;;5.10;;
43114;SDS011;28727;50.068;14.452;2024-01-15T11:45:15;13.18;;;5.13;;
43114;SDS011;28727;50.068;14.452;2024-01-15T11:50:46;13.70;;;5.97;;
43114;SDS011;28727;50.068;14.452;2024-01-15T11:53:32;11.90;;;5.68;;
43114;SDS011;28727;50.068;14.452;2024-01-15T11:56:11;12.88;;;5.25;;
43114;SDS011;28727;50.068;14.452;2024-01-15T11:58:49;10.38;;;5.20;;
43114;SDS011;28727;50.068;14.452;2024-01-15T12:01:22;13.38;;;5.97;;
43114;SDS011;28727;50.068;14.452;2024-01-15T12:03:54;12.35;;;5.88;;
43114;SDS011;28727;50.068;14.452;2024-01-15T12:06:26;11.82;;;5.43;;
43114;SDS011;28727;50.068;14.452;2024-01-15T12:09:07;11.15;;;5.30;;
43114;SDS011;28727;50.068;14.452;2024-01-15T12:11:40;9.93;;;5.10;;
43114;SDS011;28727;50.068;14.452;2024-01-15T12:14:32;11.80;;;5.25;;
43114;SDS011;28727;50.068;14.452;2024-01-15T12:17:06;10.88;;;5.50;;
43114;SDS011;28727;50.068;14.452;2024-01-15T12:19:38;12.50;;;5.63;;
43114;SDS011;28727;50.068;14.452;2024-01-15T12:22:14;10.35;;;5.30;;
43114;SDS011;28727;50.068;14.452;2024-01-15T12:24:47;12.20;;;5.88;;
43114;SDS011;28727;50.068;14.452;2024-01-15T12:27:23;9.68;;;5.43;;
43114;SDS011;28727;50.068;14.452;2024-01-15T12:30:06;10.98;;;5.38;;
43114;SDS011;28727;50.068;14.452;2024-01-15T12:32:53;14.52;;;5.03;;
43114;SDS011;28727;50.068;14.452;2024-01-15T12:35:27;11.90;;;5.83;;
43114;SDS011;28727;50.068;14.452;2024-01-15T12:38:01;9.48;;;5.05;;
43114;SDS011;28727;50.068;14.452;2024-01-15T12:40:37;11.57;;;5.18;;
43114;SDS011;28727;50.068;14.452;2024-01-15T12:43:10;11.50;;;5.50;;
43114;SDS011;28727;50.068;14.452;2024-01-15T12:45:42;11.93;;;5.43;;
43114;SDS011;28727;50.068;14.452;2024-01-15T12:48:14;11.60;;;5.18;;
43114;SDS011;28727;50.068;14.452;2024-01-15T12:50:51;15.43;;;5.10;;
43114;SDS011;28727;50.068;14.452;2024-01-15T12:53:25;11.25;;;5.38;;
43114;SDS011;28727;50.068;14.452;2024-01-15T12:55:57;10.75;;;5.15;;
43114;SDS011;28727;50.068;14.452;2024-01-15T12:58:32;13.73;;;5.43;;
43114;SDS011;28727;50.068;14.452;2024-01-15T13:01:04;12.30;;;5.30;;
43114;SDS011;28727;50.068;14.452;2024-01-15T13:03:36;8.43;;;4.45;;
43114;SDS011;28727;50.068;14.452;2024-01-15T13:06:08;8.77;;;4.65;;
43114;SDS011;28727;50.068;14.452;2024-01-15T13:11:14;11.05;;;4.68;;
43114;SDS011;28727;50.068;14.452;2024-01-15T13:13:46;10.50;;;4.55;;
43114;SDS011;28727;50.068;14.452;2024-01-15T13:16:19;10.35;;;4.03;;
43114;SDS011;28727;50.068;14.452;2024-01-15T13:18:55;8.07;;;4.38;;
43114;SDS011;28727;50.068;14.452;2024-01-15T13:21:28;13.80;;;4.53;;
43114;SDS011;28727;50.068;14.452;2024-01-15T13:24:00;8.73;;;4.22;;
43114;SDS011;28727;50.068;14.452;2024-01-15T13:26:36;9.55;;;4.32;;
43114;SDS011;28727;50.068;14.452;2024-01-15T13:29:10;8.05;;;3.80;;
43114;SDS011;28727;50.068;14.452;2024-01-15T13:31:43;10.40;;;4.72;;
43114;SDS011;28727;50.068;14.452;2024-01-15T13:34:21;9.25;;;4.40;;
43114;SDS011;28727;50.068;14.452;2024-01-15T13:36:53;9.93;;;4.47;;
43114;SDS011;28727;50.068;14.452;2024-01-15T13:39:34;11.25;;;4.45;;
43114;SDS011;28727;50.068;14.452;2024-01-15T13:42:07;16.83;;;6.10;;
43114;SDS011;28727;50.068;14.452;2024-01-15T13:44:38;14.07;;;3.97;;
43114;SDS011;28727;50.068;14.452;2024-01-15T13:47:11;9.27;;;4.30;;
43114;SDS011;28727;50.068;14.452;2024-01-15T13:49:42;8.07;;;3.92;;
43114;SDS011;28727;50.068;14.452;2024-01-15T13:52:15;8.50;;;4.28;;
43114;SDS011;28727;50.068;14.452;2024-01-15T13:54:48;10.20;;;4.00;;
43114;SDS011;28727;50.068;14.452;2024-01-15T13:57:21;7.45;;;3.55;;
43114;SDS011;28727;50.068;14.452;2024-01-15T14:00:01;8.13;;;3.88;;
43114;SDS011;28727;50.068;14.452;2024-01-15T14:02:35;7.32;;;3.67;;
43114;SDS011;28727;50.068;14.452;2024-01-15T14:05:07;8.32;;;3.80;;
43114;SDS011;28727;50.068;14.452;2024-01-15T14:07:40;7.47;;;3.70;;
43114;SDS011;28727;50.068;14.452;2024-01-15T14:10:13;8.80;;;4.05;;
43114;SDS011;28727;50.068;14.452;2024-01-15T14:12:48;7.22;;;3.75;;
43114;SDS011;28727;50.068;14.452;2024-01-15T14:15:20;7.22;;;3.58;;
43114;SDS011;28727;50.068;14.452;2024-01-15T14:17:56;9.23;;;3.75;;
43114;SDS011;28727;50.068;14.452;2024-01-15T14:20:29;8.23;;;3.40;;
43114;SDS011;28727;50.068;14.452;2024-01-15T14:23:02;7.60;;;4.07;;
43114;SDS011;28727;50.068;14.452;2024-01-15T14:25:35;6.25;;;3.47;;
43114;SDS011;28727;50.068;14.452;2024-01-15T14:28:07;10.35;;;4.22;;
43114;SDS011;28727;50.068;14.452;2024-01-15T14:30:39;7.95;;;3.53;;
43114;SDS011;28727;50.068;14.452;2024-01-15T14:33:11;8.48;;;4.00;;
43114;SDS011;28727;50.068;14.452;2024-01-15T14:35:46;8.77;;;3.72;;
43114;SDS011;28727;50.068;14.452;2024-01-15T14:40:49;5.47;;;3.28;;
43114;SDS011;28727;50.068;14.452;2024-01-15T14:43:26;11.50;;;3.70;;
43114;SDS011;28727;50.068;14.452;2024-01-15T14:45:59;6.97;;;3.50;;
43114;SDS011;28727;50.068;14.452;2024-01-15T14:48:31;8.23;;;3.75;;
43114;SDS011;28727;50.068;14.452;2024-01-15T14:51:04;6.03;;;3.25;;
43114;SDS011;28727;50.068;14.452;2024-01-15T14:53:37;8.00;;;3.80;;
43114;SDS011;28727;50.068;14.452;2024-01-15T14:56:11;10.52;;;4.00;;
43114;SDS011;28727;50.068;14.452;2024-01-15T14:58:48;7.10;;;3.50;;
43114;SDS011;28727;50.068;14.452;2024-01-15T15:01:21;8.40;;;3.85;;
43114;SDS011;28727;50.068;14.452;2024-01-15T15:03:54;9.95;;;4.25;;
43114;SDS011;28727;50.068;14.452;2024-01-15T15:06:26;7.30;;;3.60;;
43114;SDS011;28727;50.068;14.452;2024-01-15T15:09:25;10.13;;;4.03;;
43114;SDS011;28727;50.068;14.452;2024-01-15T15:11:58;10.50;;;4.32;;
43114;SDS011;28727;50.068;14.452;2024-01-15T15:14:36;7.40;;;3.63;;
43114;SDS011;28727;50.068;14.452;2024-01-15T15:17:22;6.22;;;3.25;;
43114;SDS011;28727;50.068;14.452;2024-01-15T15:19:55;6.50;;;3.30;;
43114;SDS011;28727;50.068;14.452;2024-01-15T15:22:27;8.13;;;3.78;;
43114;SDS011;28727;50.068;14.452;2024-01-15T15:24:59;7.82;;;3.60;;
43114;SDS011;28727;50.068;14.452;2024-01-15T15:27:32;7.03;;;3.78;;
43114;SDS011;28727;50.068;14.452;2024-01-15T15:30:04;8.38;;;3.72;;
43114;SDS011;28727;50.068;14.452;2024-01-15T15:32:36;8.50;;;3.92;;
43114;SDS011;28727;50.068;14.452;2024-01-15T15:35:08;8.15;;;4.05;;
43114;SDS011;28727;50.068;14.452;2024-01-15T15:37:45;8.32;;;3.88;;